SIA207 WSSS-YMML
Flight info
| Callsign | SIA207 |
|---|---|
| Flight time | N/A |
| Altitude | 39000 |
| Route | ANITO8B ANITO B470 PKP L895 SAPDA A585 DOMOM/N0484F410 A585 PD T21 LEC H119 ARBEY |
| Aircraft | A359/H-SDE1E2E3GHIJ1J2J3J5M1P2RWXYZ/LB1D1 |
Departure
| Time | N/A |
|---|---|
| Airport | Singapore Changi Airport (WSSS) |
Arrival
| Time | 2026-05-07 20:23 |
|---|---|
| Airport | Melbourne Airport (YMML) |
| Time | Latitude | Longitude | Altitude | Speed | Heading |
|---|---|---|---|---|---|
| 2026-05-07 18:33 | -28.40571 | 133.35408 | 41459 ft | 516 kts | 118° |
| 2026-05-07 18:34 | -28.43899 | 133.42640 | 41460 ft | 517 kts | 118° |
| 2026-05-07 18:34 | -28.47229 | 133.49887 | 41462 ft | 517 kts | 118° |
| 2026-05-07 18:35 | -28.50646 | 133.57336 | 41463 ft | 516 kts | 118° |
| 2026-05-07 18:35 | -28.53936 | 133.64523 | 41462 ft | 516 kts | 118° |
| 2026-05-07 18:36 | -28.57257 | 133.71789 | 41470 ft | 517 kts | 118° |
| 2026-05-07 18:36 | -28.60570 | 133.79051 | 41460 ft | 516 kts | 118° |
| 2026-05-07 18:37 | -28.63872 | 133.86303 | 41465 ft | 516 kts | 118° |
| 2026-05-07 18:37 | -28.67172 | 133.93562 | 41465 ft | 516 kts | 118° |
| 2026-05-07 18:38 | -28.70453 | 134.00793 | 41462 ft | 516 kts | 118° |
| 2026-05-07 18:38 | -28.73747 | 134.08067 | 41463 ft | 516 kts | 118° |
| 2026-05-07 18:39 | -28.77040 | 134.15349 | 41459 ft | 516 kts | 118° |
| 2026-05-07 18:39 | -28.80305 | 134.22585 | 41462 ft | 516 kts | 118° |
| 2026-05-07 18:40 | -28.83590 | 134.29877 | 41463 ft | 516 kts | 118° |
| 2026-05-07 18:40 | -28.86865 | 134.37162 | 41465 ft | 516 kts | 118° |
| 2026-05-07 18:41 | -28.90122 | 134.44418 | 41459 ft | 516 kts | 118° |
| 2026-05-07 18:41 | -28.92845 | 134.50496 | 41465 ft | 516 kts | 118° |
| 2026-05-07 18:42 | -28.96109 | 134.57793 | 41462 ft | 516 kts | 118° |
| 2026-05-07 18:42 | -28.99901 | 134.66288 | 41463 ft | 516 kts | 118° |
| 2026-05-07 18:43 | -29.02635 | 134.72424 | 41463 ft | 516 kts | 117° |
| 2026-05-07 18:43 | -29.05869 | 134.79695 | 41460 ft | 516 kts | 117° |
| 2026-05-07 18:44 | -29.09122 | 134.87023 | 41458 ft | 515 kts | 117° |
| 2026-05-07 18:44 | -29.12348 | 134.94305 | 41468 ft | 515 kts | 117° |
| 2026-05-07 18:45 | -29.15582 | 135.01615 | 41458 ft | 515 kts | 117° |
| 2026-05-07 18:45 | -29.18814 | 135.08936 | 41459 ft | 515 kts | 117° |
| 2026-05-07 18:46 | -29.22044 | 135.16267 | 41459 ft | 515 kts | 117° |
| 2026-05-07 18:46 | -29.25267 | 135.23595 | 41460 ft | 515 kts | 117° |
| 2026-05-07 18:47 | -29.28494 | 135.30946 | 41458 ft | 515 kts | 117° |
| 2026-05-07 18:47 | -29.31692 | 135.38244 | 41457 ft | 515 kts | 117° |
| 2026-05-07 18:48 | -29.34907 | 135.45595 | 41459 ft | 515 kts | 117° |
| 2026-05-07 18:48 | -29.38122 | 135.52959 | 41457 ft | 515 kts | 117° |
| 2026-05-07 18:49 | -29.41307 | 135.60269 | 41457 ft | 515 kts | 117° |
| 2026-05-07 18:49 | -29.44512 | 135.67639 | 41457 ft | 515 kts | 117° |
| 2026-05-07 18:50 | -29.47709 | 135.75003 | 41459 ft | 515 kts | 117° |
| 2026-05-07 18:50 | -29.50907 | 135.82385 | 41455 ft | 515 kts | 117° |
| 2026-05-07 18:51 | -29.54073 | 135.89707 | 41457 ft | 515 kts | 117° |
| 2026-05-07 18:51 | -29.57264 | 135.97100 | 41456 ft | 515 kts | 117° |
| 2026-05-07 18:52 | -29.60449 | 136.04493 | 41455 ft | 515 kts | 117° |
| 2026-05-07 18:52 | -29.63606 | 136.11837 | 41455 ft | 515 kts | 117° |
| 2026-05-07 18:53 | -29.66777 | 136.19227 | 41460 ft | 515 kts | 117° |
| 2026-05-07 18:53 | -29.69949 | 136.26634 | 41456 ft | 515 kts | 117° |
| 2026-05-07 18:54 | -29.73100 | 136.34047 | 41440 ft | 515 kts | 116° |
| 2026-05-07 18:54 | -29.76226 | 136.41428 | 41459 ft | 515 kts | 116° |
| 2026-05-07 18:55 | -29.79375 | 136.48870 | 41460 ft | 515 kts | 116° |
| 2026-05-07 18:55 | -29.82495 | 136.56256 | 41460 ft | 515 kts | 116° |
| 2026-05-07 18:56 | -29.85632 | 136.63695 | 41457 ft | 515 kts | 116° |
| 2026-05-07 18:56 | -29.88758 | 136.71124 | 41446 ft | 516 kts | 116° |
| 2026-05-07 18:57 | -29.91884 | 136.78566 | 41442 ft | 516 kts | 116° |
| 2026-05-07 18:57 | -29.94993 | 136.85981 | 41451 ft | 516 kts | 116° |
| 2026-05-07 18:58 | -29.97956 | 136.93064 | 41459 ft | 516 kts | 116° |
| 2026-05-07 18:58 | -30.01073 | 137.00529 | 41460 ft | 516 kts | 116° |
| 2026-05-07 18:59 | -30.04174 | 137.07968 | 41460 ft | 516 kts | 116° |
| 2026-05-07 18:59 | -30.07282 | 137.15442 | 41461 ft | 516 kts | 116° |
| 2026-05-07 19:00 | -30.10394 | 137.22939 | 41441 ft | 516 kts | 116° |
| 2026-05-07 19:00 | -30.13499 | 137.30433 | 41438 ft | 517 kts | 116° |
| 2026-05-07 19:01 | -30.16579 | 137.37881 | 41438 ft | 517 kts | 116° |
| 2026-05-07 19:01 | -30.19672 | 137.45377 | 41460 ft | 517 kts | 116° |
| 2026-05-07 19:02 | -30.22768 | 137.52895 | 41450 ft | 517 kts | 116° |
| 2026-05-07 19:02 | -30.25859 | 137.60416 | 41463 ft | 517 kts | 116° |
| 2026-05-07 19:03 | -30.28926 | 137.67895 | 41456 ft | 517 kts | 116° |
| 2026-05-07 19:03 | -30.32010 | 137.75429 | 41464 ft | 517 kts | 116° |
| 2026-05-07 19:04 | -30.35083 | 137.82952 | 41449 ft | 517 kts | 116° |
| 2026-05-07 19:04 | -30.38158 | 137.90495 | 41449 ft | 517 kts | 116° |
| 2026-05-07 19:05 | -30.41210 | 137.97995 | 41454 ft | 517 kts | 116° |
| 2026-05-07 19:05 | -30.44279 | 138.05555 | 41455 ft | 517 kts | 116° |
| 2026-05-07 19:06 | -30.47342 | 138.13116 | 41448 ft | 517 kts | 116° |
| 2026-05-07 19:06 | -30.51909 | 138.24416 | 41467 ft | 518 kts | 116° |
| 2026-05-07 19:07 | -30.54965 | 138.31998 | 41453 ft | 518 kts | 116° |
| 2026-05-07 19:07 | -30.58035 | 138.39572 | 41451 ft | 518 kts | 118° |
| 2026-05-07 19:08 | -30.62130 | 138.46323 | 41454 ft | 513 kts | 136° |
| 2026-05-07 19:08 | -30.67324 | 138.52010 | 41454 ft | 512 kts | 141° |
| 2026-05-07 19:09 | -30.72692 | 138.57469 | 41471 ft | 512 kts | 141° |
| 2026-05-07 19:09 | -30.78031 | 138.62879 | 41471 ft | 512 kts | 141° |
| 2026-05-07 19:10 | -30.83387 | 138.68363 | 41474 ft | 512 kts | 141° |
| 2026-05-07 19:10 | -30.88735 | 138.73878 | 41468 ft | 512 kts | 141° |
| 2026-05-07 19:11 | -30.94040 | 138.79362 | 41462 ft | 512 kts | 141° |
| 2026-05-07 19:11 | -30.99381 | 138.84891 | 41466 ft | 512 kts | 141° |
| 2026-05-07 19:12 | -31.04713 | 138.90417 | 41467 ft | 512 kts | 141° |
| 2026-05-07 19:12 | -31.10010 | 138.95915 | 41469 ft | 512 kts | 141° |
| 2026-05-07 19:13 | -31.15333 | 139.01449 | 41468 ft | 511 kts | 141° |
| 2026-05-07 19:13 | -31.20623 | 139.06957 | 41468 ft | 511 kts | 141° |
| 2026-05-07 19:14 | -31.25936 | 139.12497 | 41464 ft | 511 kts | 141° |
| 2026-05-07 19:14 | -31.31207 | 139.18003 | 41467 ft | 511 kts | 141° |
| 2026-05-07 19:15 | -31.36516 | 139.23556 | 41465 ft | 511 kts | 141° |
| 2026-05-07 19:15 | -31.41810 | 139.29104 | 41458 ft | 511 kts | 141° |
| 2026-05-07 19:16 | -31.47111 | 139.34667 | 41474 ft | 511 kts | 140° |
| 2026-05-07 19:16 | -31.52371 | 139.40196 | 41462 ft | 510 kts | 140° |
| 2026-05-07 19:17 | -31.57663 | 139.45768 | 41465 ft | 509 kts | 140° |
| 2026-05-07 19:17 | -31.62915 | 139.51306 | 41463 ft | 509 kts | 140° |
| 2026-05-07 19:18 | -31.68185 | 139.56871 | 41461 ft | 509 kts | 140° |
| 2026-05-07 19:18 | -31.73452 | 139.62442 | 41463 ft | 509 kts | 140° |
| 2026-05-07 19:19 | -31.78689 | 139.67991 | 41462 ft | 509 kts | 140° |
| 2026-05-07 19:19 | -31.83947 | 139.73570 | 41465 ft | 508 kts | 140° |
| 2026-05-07 19:20 | -31.89193 | 139.79147 | 41463 ft | 507 kts | 140° |
| 2026-05-07 19:20 | -31.94403 | 139.84693 | 41462 ft | 507 kts | 140° |
| 2026-05-07 19:21 | -31.99643 | 139.90280 | 41463 ft | 507 kts | 140° |
| 2026-05-07 19:21 | -32.04879 | 139.95872 | 41462 ft | 507 kts | 140° |
| 2026-05-07 19:22 | -32.10087 | 140.01443 | 41464 ft | 507 kts | 140° |
| 2026-05-07 19:22 | -32.15314 | 140.07043 | 41463 ft | 507 kts | 140° |
| 2026-05-07 19:23 | -32.20532 | 140.12644 | 41463 ft | 506 kts | 140° |
| 2026-05-07 19:23 | -32.25734 | 140.18235 | 41462 ft | 505 kts | 140° |
| 2026-05-07 19:24 | -32.30924 | 140.23824 | 41460 ft | 505 kts | 140° |
| 2026-05-07 19:24 | -32.36089 | 140.29393 | 41460 ft | 505 kts | 140° |
| 2026-05-07 19:25 | -32.41284 | 140.35004 | 41456 ft | 505 kts | 140° |
| 2026-05-07 19:25 | -32.46480 | 140.40626 | 41453 ft | 505 kts | 140° |
| 2026-05-07 19:26 | -32.51631 | 140.46208 | 41453 ft | 505 kts | 140° |
| 2026-05-07 19:26 | -32.56809 | 140.51828 | 41445 ft | 504 kts | 140° |
| 2026-05-07 19:27 | -32.61976 | 140.57446 | 41441 ft | 504 kts | 140° |
| 2026-05-07 19:27 | -32.67141 | 140.63071 | 41447 ft | 504 kts | 140° |
| 2026-05-07 19:28 | -32.72307 | 140.68706 | 41448 ft | 504 kts | 140° |
| 2026-05-07 19:28 | -32.77472 | 140.74349 | 41443 ft | 504 kts | 140° |
| 2026-05-07 19:29 | -32.82601 | 140.79963 | 41441 ft | 504 kts | 139° |
| 2026-05-07 19:29 | -32.87767 | 140.85626 | 41451 ft | 504 kts | 139° |
| 2026-05-07 19:30 | -32.92044 | 140.90322 | 41444 ft | 503 kts | 139° |
| 2026-05-07 19:30 | -32.98029 | 140.96904 | 41437 ft | 502 kts | 139° |
| 2026-05-07 19:31 | -33.02304 | 141.01612 | 41435 ft | 502 kts | 139° |
| 2026-05-07 19:31 | -33.08272 | 141.08197 | 41434 ft | 502 kts | 139° |
| 2026-05-07 19:32 | -33.12573 | 141.12950 | 41432 ft | 502 kts | 139° |
| 2026-05-07 19:32 | -33.17669 | 141.18591 | 41428 ft | 503 kts | 139° |
| 2026-05-07 19:33 | -33.22813 | 141.24294 | 41440 ft | 503 kts | 139° |
| 2026-05-07 19:33 | -33.27897 | 141.29941 | 41426 ft | 501 kts | 139° |
| 2026-05-07 19:34 | -33.33000 | 141.35618 | 41422 ft | 500 kts | 139° |
| 2026-05-07 19:34 | -33.38095 | 141.41296 | 41418 ft | 500 kts | 139° |
| 2026-05-07 19:35 | -33.43189 | 141.46981 | 41422 ft | 500 kts | 139° |
| 2026-05-07 19:35 | -33.48252 | 141.52641 | 41422 ft | 500 kts | 139° |
| 2026-05-07 19:36 | -33.53340 | 141.58340 | 41415 ft | 500 kts | 139° |
| 2026-05-07 19:36 | -33.58406 | 141.64023 | 41421 ft | 500 kts | 139° |
| 2026-05-07 19:37 | -33.63483 | 141.69729 | 41413 ft | 498 kts | 139° |
| 2026-05-07 19:37 | -33.68544 | 141.75427 | 41407 ft | 498 kts | 139° |
| 2026-05-07 19:38 | -33.73600 | 141.81126 | 41414 ft | 498 kts | 139° |
| 2026-05-07 19:38 | -33.78617 | 141.86794 | 41405 ft | 497 kts | 139° |
| 2026-05-07 19:39 | -33.83660 | 141.92499 | 41400 ft | 496 kts | 139° |
| 2026-05-07 19:39 | -33.88697 | 141.98207 | 41400 ft | 496 kts | 139° |
| 2026-05-07 19:40 | -33.93693 | 142.03878 | 41409 ft | 496 kts | 140° |
| 2026-05-07 19:40 | -33.98710 | 142.09585 | 41395 ft | 494 kts | 140° |
| 2026-05-07 19:41 | -34.03712 | 142.15283 | 41395 ft | 493 kts | 140° |
| 2026-05-07 19:41 | -34.08675 | 142.20945 | 41391 ft | 493 kts | 140° |
| 2026-05-07 19:42 | -34.13671 | 142.26655 | 41389 ft | 493 kts | 140° |
| 2026-05-07 19:42 | -34.18656 | 142.32363 | 41384 ft | 494 kts | 140° |
| 2026-05-07 19:43 | -34.23639 | 142.38077 | 41379 ft | 494 kts | 140° |
| 2026-05-07 19:43 | -34.28589 | 142.43763 | 41379 ft | 494 kts | 140° |
| 2026-05-07 19:44 | -34.33563 | 142.49488 | 41376 ft | 494 kts | 140° |
| 2026-05-07 19:44 | -34.38534 | 142.55219 | 41375 ft | 494 kts | 140° |
| 2026-05-07 19:45 | -34.43501 | 142.60955 | 41374 ft | 493 kts | 140° |
| 2026-05-07 19:45 | -34.48479 | 142.66713 | 41373 ft | 493 kts | 140° |
| 2026-05-07 19:46 | -34.53413 | 142.72431 | 41371 ft | 493 kts | 140° |
| 2026-05-07 19:46 | -34.58385 | 142.78202 | 41371 ft | 493 kts | 140° |
| 2026-05-07 19:47 | -34.63351 | 142.83977 | 41375 ft | 494 kts | 140° |
| 2026-05-07 19:47 | -34.68278 | 142.89716 | 41356 ft | 492 kts | 140° |
| 2026-05-07 19:48 | -34.73232 | 142.95498 | 41356 ft | 492 kts | 140° |
| 2026-05-07 19:48 | -34.78171 | 143.01271 | 41365 ft | 492 kts | 140° |
| 2026-05-07 19:49 | -34.83079 | 143.07017 | 41352 ft | 493 kts | 140° |
| 2026-05-07 19:49 | -34.88021 | 143.12814 | 41347 ft | 493 kts | 140° |
| 2026-05-07 19:50 | -34.92973 | 143.18634 | 41345 ft | 493 kts | 140° |
| 2026-05-07 19:50 | -34.98115 | 143.24016 | 41365 ft | 487 kts | 150° |
| 2026-05-07 19:51 | -35.03790 | 143.28515 | 41338 ft | 484 kts | 153° |
| 2026-05-07 19:51 | -35.09530 | 143.32824 | 41338 ft | 484 kts | 153° |
| 2026-05-07 19:52 | -35.15280 | 143.37120 | 41333 ft | 484 kts | 153° |
| 2026-05-07 19:52 | -35.20984 | 143.41412 | 41333 ft | 484 kts | 153° |
| 2026-05-07 19:53 | -35.26731 | 143.45760 | 41334 ft | 484 kts | 153° |
| 2026-05-07 19:53 | -35.32420 | 143.50078 | 41339 ft | 483 kts | 153° |
| 2026-05-07 19:54 | -35.38136 | 143.54422 | 41321 ft | 483 kts | 153° |
| 2026-05-07 19:54 | -35.43857 | 143.58775 | 41316 ft | 482 kts | 153° |
| 2026-05-07 19:55 | -35.49527 | 143.63097 | 41315 ft | 482 kts | 153° |
| 2026-05-07 19:55 | -35.55237 | 143.67457 | 41315 ft | 482 kts | 153° |
| 2026-05-07 19:56 | -35.60938 | 143.71818 | 41308 ft | 481 kts | 153° |
| 2026-05-07 19:56 | -35.66594 | 143.76150 | 41301 ft | 481 kts | 153° |
| 2026-05-07 19:57 | -35.69432 | 143.78328 | 41076 ft | 480 kts | 153° |
| 2026-05-07 19:57 | -35.72265 | 143.80503 | 40824 ft | 480 kts | 153° |
| 2026-05-07 19:57 | -35.75105 | 143.82686 | 40573 ft | 479 kts | 153° |
| 2026-05-07 19:57 | -35.77942 | 143.84868 | 40343 ft | 478 kts | 153° |
| 2026-05-07 19:58 | -35.80727 | 143.87012 | 40046 ft | 476 kts | 153° |
| 2026-05-07 19:58 | -35.83533 | 143.89173 | 39447 ft | 475 kts | 153° |
| 2026-05-07 19:58 | -35.86332 | 143.91331 | 38840 ft | 472 kts | 153° |
| 2026-05-07 19:58 | -35.89115 | 143.93479 | 38024 ft | 471 kts | 153° |
| 2026-05-07 19:59 | -35.91865 | 143.95603 | 37233 ft | 470 kts | 153° |
| 2026-05-07 19:59 | -35.94634 | 143.97744 | 36540 ft | 468 kts | 152° |
| 2026-05-07 19:59 | -35.97386 | 143.99873 | 35858 ft | 466 kts | 152° |
| 2026-05-07 19:59 | -36.00135 | 144.02002 | 35148 ft | 465 kts | 152° |
| 2026-05-07 20:00 | -36.02882 | 144.04130 | 34400 ft | 466 kts | 152° |
| 2026-05-07 20:00 | -36.05632 | 144.06262 | 33492 ft | 467 kts | 152° |
| 2026-05-07 20:00 | -36.08389 | 144.08401 | 32640 ft | 467 kts | 152° |
| 2026-05-07 20:00 | -36.11138 | 144.10537 | 31784 ft | 467 kts | 152° |
| 2026-05-07 20:01 | -36.13890 | 144.12677 | 30889 ft | 466 kts | 153° |
| 2026-05-07 20:01 | -36.16631 | 144.14812 | 30136 ft | 462 kts | 153° |
| 2026-05-07 20:01 | -36.19342 | 144.16927 | 29473 ft | 456 kts | 153° |
| 2026-05-07 20:01 | -36.22003 | 144.19006 | 28847 ft | 449 kts | 153° |
| 2026-05-07 20:02 | -36.24597 | 144.21033 | 28231 ft | 443 kts | 153° |
| 2026-05-07 20:02 | -36.27187 | 144.23057 | 27611 ft | 437 kts | 153° |
| 2026-05-07 20:02 | -36.29751 | 144.25061 | 27016 ft | 433 kts | 153° |
| 2026-05-07 20:02 | -36.32287 | 144.27044 | 26385 ft | 429 kts | 154° |
| 2026-05-07 20:03 | -36.34799 | 144.29009 | 25781 ft | 425 kts | 154° |
| 2026-05-07 20:03 | -36.37300 | 144.30967 | 25177 ft | 421 kts | 154° |
| 2026-05-07 20:03 | -36.39773 | 144.32904 | 24581 ft | 417 kts | 154° |
| 2026-05-07 20:03 | -36.42181 | 144.34792 | 23985 ft | 414 kts | 154° |
| 2026-05-07 20:04 | -36.44611 | 144.36698 | 23332 ft | 411 kts | 154° |
| 2026-05-07 20:04 | -36.47012 | 144.38584 | 22728 ft | 406 kts | 154° |
| 2026-05-07 20:04 | -36.49380 | 144.40447 | 22133 ft | 400 kts | 154° |
| 2026-05-07 20:04 | -36.51720 | 144.42289 | 21547 ft | 395 kts | 154° |
| 2026-05-07 20:05 | -36.53255 | 144.43498 | 21160 ft | 392 kts | 154° |
| 2026-05-07 20:05 | -36.56320 | 144.45913 | 20363 ft | 387 kts | 154° |
| 2026-05-07 20:05 | -36.58588 | 144.47699 | 19776 ft | 383 kts | 153° |
| 2026-05-07 20:05 | -36.60836 | 144.49472 | 19181 ft | 380 kts | 153° |
| 2026-05-07 20:06 | -36.63034 | 144.51207 | 18618 ft | 377 kts | 154° |
| 2026-05-07 20:06 | -36.65248 | 144.52956 | 17967 ft | 374 kts | 154° |
| 2026-05-07 20:06 | -36.67438 | 144.54688 | 17348 ft | 370 kts | 154° |
| 2026-05-07 20:06 | -36.69599 | 144.56398 | 16752 ft | 365 kts | 154° |
| 2026-05-07 20:07 | -36.71737 | 144.58092 | 16158 ft | 361 kts | 154° |
| 2026-05-07 20:07 | -36.73845 | 144.59762 | 15571 ft | 357 kts | 154° |
| 2026-05-07 20:07 | -36.75910 | 144.61399 | 14985 ft | 354 kts | 154° |
| 2026-05-07 20:07 | -36.77983 | 144.63042 | 14404 ft | 351 kts | 154° |
| 2026-05-07 20:08 | -36.80103 | 144.64497 | 13794 ft | 342 kts | 162° |
| 2026-05-07 20:08 | -36.82348 | 144.65389 | 12993 ft | 340 kts | 168° |
| 2026-05-07 20:08 | -36.84697 | 144.66006 | 12566 ft | 344 kts | 174° |
| 2026-05-07 20:08 | -36.87031 | 144.66549 | 12000 ft | 337 kts | 174° |
| 2026-05-07 20:09 | -36.89309 | 144.67065 | 11606 ft | 326 kts | 174° |
| 2026-05-07 20:09 | -36.91442 | 144.67547 | 11479 ft | 301 kts | 175° |
| 2026-05-07 20:09 | -36.93415 | 144.67997 | 11386 ft | 268 kts | 175° |
| 2026-05-07 20:10 | -36.96782 | 144.68748 | 11181 ft | 238 kts | 176° |
| 2026-05-07 20:10 | -36.98410 | 144.69099 | 10982 ft | 238 kts | 176° |
| 2026-05-07 20:10 | -37.00046 | 144.69453 | 10800 ft | 237 kts | 176° |
| 2026-05-07 20:10 | -37.01661 | 144.69806 | 10675 ft | 236 kts | 176° |
| 2026-05-07 20:11 | -37.03277 | 144.70161 | 10436 ft | 235 kts | 176° |
| 2026-05-07 20:11 | -37.04860 | 144.70511 | 10146 ft | 233 kts | 176° |
| 2026-05-07 20:11 | -37.06466 | 144.70866 | 9850 ft | 238 kts | 176° |
| 2026-05-07 20:11 | -37.08146 | 144.71230 | 9725 ft | 250 kts | 176° |
| 2026-05-07 20:12 | -37.09866 | 144.71612 | 9507 ft | 249 kts | 176° |
| 2026-05-07 20:12 | -37.11574 | 144.71994 | 9007 ft | 249 kts | 175° |
| 2026-05-07 20:12 | -37.13277 | 144.72375 | 8662 ft | 247 kts | 175° |
| 2026-05-07 20:12 | -37.14969 | 144.72751 | 8335 ft | 246 kts | 175° |
| 2026-05-07 20:13 | -37.16631 | 144.73121 | 8083 ft | 245 kts | 175° |
| 2026-05-07 20:13 | -37.18311 | 144.73525 | 7815 ft | 245 kts | 174° |
| 2026-05-07 20:13 | -37.19979 | 144.73974 | 7441 ft | 243 kts | 173° |
| 2026-05-07 20:13 | -37.21625 | 144.74423 | 7113 ft | 242 kts | 173° |
| 2026-05-07 20:14 | -37.23263 | 144.74866 | 6823 ft | 241 kts | 173° |
| 2026-05-07 20:14 | -37.24899 | 144.75305 | 6503 ft | 240 kts | 173° |
| 2026-05-07 20:14 | -37.26514 | 144.75736 | 6186 ft | 239 kts | 173° |
| 2026-05-07 20:14 | -37.28142 | 144.76171 | 5874 ft | 238 kts | 173° |
| 2026-05-07 20:15 | -37.29763 | 144.76605 | 5601 ft | 237 kts | 173° |
| 2026-05-07 20:15 | -37.31338 | 144.77034 | 5473 ft | 224 kts | 173° |
| 2026-05-07 20:15 | -37.32831 | 144.77417 | 5350 ft | 217 kts | 175° |
| 2026-05-07 20:15 | -37.34319 | 144.77736 | 5149 ft | 216 kts | 176° |
| 2026-05-07 20:16 | -37.35797 | 144.78023 | 4897 ft | 214 kts | 177° |
| 2026-05-07 20:16 | -37.37244 | 144.78293 | 4639 ft | 213 kts | 178° |
| 2026-05-07 20:16 | -37.38713 | 144.78556 | 4399 ft | 214 kts | 178° |
| 2026-05-07 20:16 | -37.40149 | 144.78814 | 4282 ft | 202 kts | 178° |
| 2026-05-07 20:17 | -37.41503 | 144.79061 | 4181 ft | 191 kts | 179° |
| 2026-05-07 20:17 | -37.42779 | 144.79296 | 4052 ft | 179 kts | 180° |
| 2026-05-07 20:17 | -37.43971 | 144.79518 | 4016 ft | 170 kts | 179° |
| 2026-05-07 20:17 | -37.45143 | 144.79734 | 4008 ft | 170 kts | 180° |
| 2026-05-07 20:18 | -37.46313 | 144.79949 | 4025 ft | 169 kts | 180° |
| 2026-05-07 20:18 | -37.47483 | 144.80165 | 3994 ft | 171 kts | 180° |
| 2026-05-07 20:18 | -37.48632 | 144.80380 | 3854 ft | 166 kts | 180° |
| 2026-05-07 20:18 | -37.49773 | 144.80594 | 3614 ft | 164 kts | 180° |
| 2026-05-07 20:19 | -37.50899 | 144.80802 | 3375 ft | 164 kts | 180° |
| 2026-05-07 20:19 | -37.52016 | 144.81010 | 3136 ft | 165 kts | 181° |
| 2026-05-07 20:19 | -37.53161 | 144.81223 | 2910 ft | 168 kts | 181° |
| 2026-05-07 20:19 | -37.54312 | 144.81439 | 2709 ft | 164 kts | 181° |
| 2026-05-07 20:20 | -37.55413 | 144.81647 | 2474 ft | 155 kts | 182° |
| 2026-05-07 20:20 | -37.56472 | 144.81843 | 2265 ft | 153 kts | 182° |
| 2026-05-07 20:20 | -37.57159 | 144.81971 | 2127 ft | 148 kts | 182° |
| 2026-05-07 20:20 | -37.58165 | 144.82157 | 1927 ft | 146 kts | 182° |
| 2026-05-07 20:21 | -37.59161 | 144.82342 | 1726 ft | 140 kts | 182° |
| 2026-05-07 20:21 | -37.60092 | 144.82533 | 1500 ft | 132 kts | 180° |
| 2026-05-07 20:21 | -37.61014 | 144.82720 | 1405 ft | 143 kts | 179° |
| 2026-05-07 20:21 | -37.62034 | 144.82852 | 1271 ft | 148 kts | 185° |
| 2026-05-07 20:22 | -37.63154 | 144.83029 | 1102 ft | 181 kts | 171° |
| 2026-05-07 20:22 | -37.64355 | 144.83333 | 731 ft | 169 kts | 176° |
| 2026-05-07 20:22 | -37.65469 | 144.83539 | 472 ft | 154 kts | 179° |
| 2026-05-07 20:22 | -37.66450 | 144.83722 | 408 ft | 127 kts | 174° |
| 2026-05-07 20:23 | -37.67206 | 144.83831 | 386 ft | 94 kts | 171° |
| 2026-05-07 20:23 | -37.67737 | 144.83946 | 368 ft | 50 kts | 171° |
| 2026-05-07 20:23 | -37.67885 | 144.84128 | 371 ft | 26 kts | 75° |
| 2026-05-07 20:23 | -37.67845 | 144.84348 | 373 ft | 25 kts | 79° |
| 2026-05-07 20:24 | -37.67821 | 144.84529 | 371 ft | 21 kts | 83° |
| 2026-05-07 20:24 | -37.67729 | 144.84595 | 376 ft | 16 kts | 353° |
| 2026-05-07 20:24 | -37.67618 | 144.84567 | 381 ft | 17 kts | 349° |
| 2026-05-07 20:24 | -37.67502 | 144.84538 | 384 ft | 16 kts | 338° |
| 2026-05-07 20:25 | -37.67475 | 144.84426 | 384 ft | 15 kts | 266° |
| 2026-05-07 20:25 | -37.67432 | 144.84309 | 383 ft | 16 kts | 337° |
| 2026-05-07 20:25 | -37.67320 | 144.84292 | 386 ft | 17 kts | 352° |
| 2026-05-07 20:25 | -37.67198 | 144.84269 | 388 ft | 19 kts | 352° |
| 2026-05-07 20:26 | -37.67062 | 144.84243 | 391 ft | 21 kts | 351° |
| 2026-05-07 20:26 | -37.66915 | 144.84215 | 391 ft | 22 kts | 351° |
| 2026-05-07 20:26 | -37.66794 | 144.84208 | 397 ft | 11 kts | 31° |
| 2026-05-07 20:26 | -37.66770 | 144.84273 | 397 ft | 8 kts | 79° |
| 2026-05-07 20:27 | -37.66765 | 144.84309 | 397 ft | 0 kts | 80° |
| 2026-05-07 20:27 | -37.66764 | 144.84318 | 397 ft | 1 kts | 81° |
| 2026-05-07 20:27 | -37.66763 | 144.84321 | 397 ft | 0 kts | 81° |
| 2026-05-07 20:29 | -37.66763 | 144.84320 | 397 ft | 0 kts | 81° |
| 2026-05-07 20:30 | -37.66764 | 144.84320 | 400 ft | 0 kts | 81° |